sensor_id;sensor_type;location;lat;lon;timestamp;pressure;altitude;pressure_sealevel;temperature;humidity
44457;BME280;30159;49.316;8.558;2023-07-24T00:01:18;99596.75;;;21.87;71.73
44457;BME280;30159;49.316;8.558;2023-07-24T00:03:45;99580.91;;;21.77;72.55
44457;BME280;30159;49.316;8.558;2023-07-24T00:06:13;99595.75;;;21.72;73.10
44457;BME280;30159;49.316;8.558;2023-07-24T00:08:40;99597.22;;;21.62;73.65
44457;BME280;30159;49.316;8.558;2023-07-24T00:11:07;99454.13;;;20.66;73.94
44457;BME280;30159;49.316;8.558;2023-07-24T00:13:33;99593.56;;;21.51;74.57
44457;BME280;30159;49.316;8.558;2023-07-24T00:16:00;99589.56;;;21.45;75.15
44457;BME280;30159;49.316;8.558;2023-07-24T00:18:27;99579.63;;;21.37;75.27
44457;BME280;30159;49.316;8.558;2023-07-24T00:20:53;99432.63;;;20.41;75.28
44457;BME280;30159;49.316;8.558;2023-07-24T00:23:21;99577.31;;;21.39;75.28
44457;BME280;30159;49.316;8.558;2023-07-24T00:25:47;99568.22;;;21.35;75.47
44457;BME280;30159;49.316;8.558;2023-07-24T00:28:14;99574.03;;;21.26;76.13
44457;BME280;30159;49.316;8.558;2023-07-24T00:30:42;99569.31;;;21.26;76.13
44457;BME280;30159;49.316;8.558;2023-07-24T00:33:08;99579.44;;;21.22;76.21
44457;BME280;30159;49.316;8.558;2023-07-24T00:35:35;99572.44;;;21.25;75.82
44457;BME280;30159;49.316;8.558;2023-07-24T00:38:01;99570.16;;;21.31;75.73
44457;BME280;30159;49.316;8.558;2023-07-24T00:40:29;99571.72;;;21.32;75.28
44457;BME280;30159;49.316;8.558;2023-07-24T00:42:56;99564.56;;;21.23;75.63
44457;BME280;30159;49.316;8.558;2023-07-24T00:45:23;99430.94;;;20.33;75.69
44457;BME280;30159;49.316;8.558;2023-07-24T00:47:50;99559.78;;;21.17;75.91
44457;BME280;30159;49.316;8.558;2023-07-24T00:50:18;99562.84;;;21.12;76.41
44457;BME280;30159;49.316;8.558;2023-07-24T00:52:45;99548.59;;;21.02;77.08
44457;BME280;30159;49.316;8.558;2023-07-24T00:55:13;99381.00;;;19.90;77.37
44457;BME280;30159;49.316;8.558;2023-07-24T00:57:43;99549.75;;;20.98;78.19
44457;BME280;30159;49.316;8.558;2023-07-24T01:00:11;99542.94;;;20.88;78.86
44457;BME280;30159;49.316;8.558;2023-07-24T01:02:38;99540.94;;;20.85;79.87
44457;BME280;30159;49.316;8.558;2023-07-24T01:05:05;99537.31;;;20.77;80.45
44457;BME280;30159;49.316;8.558;2023-07-24T01:07:32;99534.81;;;20.69;81.36
44457;BME280;30159;49.316;8.558;2023-07-24T01:09:59;99532.44;;;20.67;82.20
44457;BME280;30159;49.316;8.558;2023-07-24T01:12:31;99539.09;;;20.66;82.91
44457;BME280;30159;49.316;8.558;2023-07-24T01:15:08;99534.06;;;20.72;83.99
44457;BME280;30159;49.316;8.558;2023-07-24T01:17:39;99521.66;;;20.78;84.64
44457;BME280;30159;49.316;8.558;2023-07-24T01:20:09;99519.84;;;20.89;84.46
44457;BME280;30159;49.316;8.558;2023-07-24T01:22:39;99397.72;;;20.08;84.50
44457;BME280;30159;49.316;8.558;2023-07-24T01:25:10;99499.34;;;20.79;85.13
44457;BME280;30159;49.316;8.558;2023-07-24T01:27:42;99502.19;;;20.87;85.35
44457;BME280;30159;49.316;8.558;2023-07-24T01:30:09;99500.25;;;20.87;86.25
44457;BME280;30159;49.316;8.558;2023-07-24T01:32:36;99502.00;;;21.02;85.85
44457;BME280;30159;49.316;8.558;2023-07-24T01:35:03;99494.53;;;20.99;86.22
44457;BME280;30159;49.316;8.558;2023-07-24T01:37:30;99500.09;;;21.07;86.41
44457;BME280;30159;49.316;8.558;2023-07-24T01:39:57;99505.72;;;21.17;86.13
44457;BME280;30159;49.316;8.558;2023-07-24T01:42:25;99510.88;;;21.22;86.87
44457;BME280;30159;49.316;8.558;2023-07-24T01:44:54;99519.28;;;21.37;85.82
44457;BME280;30159;49.316;8.558;2023-07-24T01:47:20;99520.56;;;21.43;85.72
44457;BME280;30159;49.316;8.558;2023-07-24T01:49:48;99520.63;;;21.50;85.10
44457;BME280;30159;49.316;8.558;2023-07-24T01:52:15;99517.59;;;21.59;85.36
44457;BME280;30159;49.316;8.558;2023-07-24T01:54:41;99514.53;;;21.67;84.69
44457;BME280;30159;49.316;8.558;2023-07-24T01:57:08;99507.91;;;21.68;84.76
44457;BME280;30159;49.316;8.558;2023-07-24T01:59:34;99502.50;;;21.76;84.04
44457;BME280;30159;49.316;8.558;2023-07-24T02:02:02;99511.00;;;21.67;84.87
44457;BME280;30159;49.316;8.558;2023-07-24T02:04:29;99499.63;;;21.65;84.73
44457;BME280;30159;49.316;8.558;2023-07-24T02:06:55;99504.03;;;21.73;84.58
44457;BME280;30159;49.316;8.558;2023-07-24T02:09:22;99491.38;;;21.61;85.06
44457;BME280;30159;49.316;8.558;2023-07-24T02:11:49;99496.44;;;21.59;85.82
44457;BME280;30159;49.316;8.558;2023-07-24T02:14:17;99483.88;;;21.58;85.78
44457;BME280;30159;49.316;8.558;2023-07-24T02:16:45;99484.22;;;21.53;85.74
44457;BME280;30159;49.316;8.558;2023-07-24T02:19:13;99482.63;;;21.52;85.89
44457;BME280;30159;49.316;8.558;2023-07-24T02:21:40;99475.56;;;21.51;86.10
44457;BME280;30159;49.316;8.558;2023-07-24T02:24:06;99483.09;;;21.27;87.09
44457;BME280;30159;49.316;8.558;2023-07-24T02:26:33;99469.72;;;21.22;87.39
44457;BME280;30159;49.316;8.558;2023-07-24T02:29:00;99476.09;;;21.30;87.30
44457;BME280;30159;49.316;8.558;2023-07-24T02:31:26;99469.44;;;21.31;87.42
44457;BME280;30159;49.316;8.558;2023-07-24T02:33:53;99465.16;;;21.34;87.32
44457;BME280;30159;49.316;8.558;2023-07-24T02:36:21;99458.06;;;21.29;88.00
44457;BME280;30159;49.316;8.558;2023-07-24T02:38:47;99464.25;;;21.22;88.53
44457;BME280;30159;49.316;8.558;2023-07-24T02:41:14;99449.28;;;21.16;87.80
44457;BME280;30159;49.316;8.558;2023-07-24T02:43:40;99458.91;;;21.33;87.64
44457;BME280;30159;49.316;8.558;2023-07-24T02:46:07;99457.03;;;21.41;86.39
44457;BME280;30159;49.316;8.558;2023-07-24T02:48:34;99444.72;;;21.27;86.77
44457;BME280;30159;49.316;8.558;2023-07-24T02:51:01;99444.88;;;21.42;86.30
44457;BME280;30159;49.316;8.558;2023-07-24T02:53:29;99444.16;;;21.45;84.95
44457;BME280;30159;49.316;8.558;2023-07-24T02:55:55;99448.28;;;21.32;85.96
44457;BME280;30159;49.316;8.558;2023-07-24T02:58:22;99446.22;;;21.21;85.75
44457;BME280;30159;49.316;8.558;2023-07-24T03:00:49;99449.47;;;21.31;85.53
44457;BME280;30159;49.316;8.558;2023-07-24T03:03:15;99449.47;;;21.34;85.29
44457;BME280;30159;49.316;8.558;2023-07-24T03:05:42;99451.03;;;21.32;85.68
44457;BME280;30159;49.316;8.558;2023-07-24T03:08:08;99451.44;;;21.34;85.59
44457;BME280;30159;49.316;8.558;2023-07-24T03:10:39;99448.81;;;21.41;84.79
44457;BME280;30159;49.316;8.558;2023-07-24T03:13:06;99436.53;;;21.31;84.94
44457;BME280;30159;49.316;8.558;2023-07-24T03:15:33;99426.59;;;21.19;84.60
44457;BME280;30159;49.316;8.558;2023-07-24T03:17:59;99425.47;;;21.24;84.36
44457;BME280;30159;49.316;8.558;2023-07-24T03:20:26;99421.06;;;21.16;84.99
44457;BME280;30159;49.316;8.558;2023-07-24T03:22:52;99417.88;;;21.10;85.15
44457;BME280;30159;49.316;8.558;2023-07-24T03:25:19;99417.81;;;21.07;85.27
44457;BME280;30159;49.316;8.558;2023-07-24T03:27:47;99420.97;;;21.05;85.54
44457;BME280;30159;49.316;8.558;2023-07-24T03:30:14;99420.97;;;21.05;85.15
44457;BME280;30159;49.316;8.558;2023-07-24T03:32:40;99424.00;;;21.00;85.72
44457;BME280;30159;49.316;8.558;2023-07-24T03:35:08;99432.66;;;21.02;85.05
44457;BME280;30159;49.316;8.558;2023-07-24T03:37:34;99413.72;;;20.90;85.91
44457;BME280;30159;49.316;8.558;2023-07-24T03:40:01;99410.84;;;20.79;86.40
44457;BME280;30159;49.316;8.558;2023-07-24T03:42:29;99402.59;;;20.75;86.50
44457;BME280;30159;49.316;8.558;2023-07-24T03:44:57;99415.16;;;20.80;86.97
44457;BME280;30159;49.316;8.558;2023-07-24T03:47:24;99410.06;;;20.78;86.74
44457;BME280;30159;49.316;8.558;2023-07-24T03:49:51;99248.09;;;19.66;86.72
44457;BME280;30159;49.316;8.558;2023-07-24T03:52:17;99413.50;;;20.72;86.95
44457;BME280;30159;49.316;8.558;2023-07-24T03:54:44;99401.31;;;20.69;87.27
44457;BME280;30159;49.316;8.558;2023-07-24T03:57:11;99389.91;;;20.63;87.78
44457;BME280;30159;49.316;8.558;2023-07-24T03:59:37;99398.13;;;20.63;87.62
44457;BME280;30159;49.316;8.558;2023-07-24T04:02:05;99407.91;;;20.65;87.61
44457;BME280;30159;49.316;8.558;2023-07-24T04:04:32;99425.91;;;20.62;87.83
44457;BME280;30159;49.316;8.558;2023-07-24T04:06:59;99422.03;;;20.67;88.13
44457;BME280;30159;49.316;8.558;2023-07-24T04:09:26;99265.97;;;19.60;88.06
44457;BME280;30159;49.316;8.558;2023-07-24T04:11:53;99408.81;;;20.72;87.70
44457;BME280;30159;49.316;8.558;2023-07-24T04:14:19;99410.91;;;20.82;87.66
44457;BME280;30159;49.316;8.558;2023-07-24T04:16:46;99411.34;;;20.88;87.58
44457;BME280;30159;49.316;8.558;2023-07-24T04:19:14;99418.38;;;20.86;87.63
44457;BME280;30159;49.316;8.558;2023-07-24T04:21:41;99414.59;;;20.97;87.07
44457;BME280;30159;49.316;8.558;2023-07-24T04:24:07;99409.53;;;20.99;87.16
44457;BME280;30159;49.316;8.558;2023-07-24T04:26:34;99419.38;;;21.04;86.66
44457;BME280;30159;49.316;8.558;2023-07-24T04:29:00;99412.41;;;21.10;86.54
44457;BME280;30159;49.316;8.558;2023-07-24T04:31:27;99398.28;;;21.08;86.68
44457;BME280;30159;49.316;8.558;2023-07-24T04:33:53;99387.31;;;21.08;87.14
44457;BME280;30159;49.316;8.558;2023-07-24T04:36:21;99386.97;;;21.13;86.90
44457;BME280;30159;49.316;8.558;2023-07-24T04:38:48;99379.56;;;21.17;86.80
44457;BME280;30159;49.316;8.558;2023-07-24T04:41:14;99369.03;;;21.23;86.76
44457;BME280;30159;49.316;8.558;2023-07-24T04:43:42;99369.72;;;21.13;87.10
44457;BME280;30159;49.316;8.558;2023-07-24T04:46:08;99375.66;;;21.18;87.55
44457;BME280;30159;49.316;8.558;2023-07-24T04:48:35;99371.81;;;21.26;87.40
44457;BME280;30159;49.316;8.558;2023-07-24T04:51:01;99378.16;;;21.31;86.71
44457;BME280;30159;49.316;8.558;2023-07-24T04:53:29;99385.16;;;21.28;87.59
44457;BME280;30159;49.316;8.558;2023-07-24T04:55:56;99384.78;;;21.30;87.47
44457;BME280;30159;49.316;8.558;2023-07-24T04:58:22;99377.78;;;21.36;87.48
44457;BME280;30159;49.316;8.558;2023-07-24T05:00:49;99377.03;;;21.39;87.53
44457;BME280;30159;49.316;8.558;2023-07-24T05:03:15;99378.31;;;21.45;87.14
44457;BME280;30159;49.316;8.558;2023-07-24T05:05:43;99374.50;;;21.57;86.27
44457;BME280;30159;49.316;8.558;2023-07-24T05:08:10;99386.63;;;21.56;86.64
44457;BME280;30159;49.316;8.558;2023-07-24T05:10:37;99390.22;;;21.63;86.36
44457;BME280;30159;49.316;8.558;2023-07-24T05:13:04;99392.16;;;21.63;86.50
44457;BME280;30159;49.316;8.558;2023-07-24T05:15:31;99380.06;;;21.67;86.54
44457;BME280;30159;49.316;8.558;2023-07-24T05:17:57;99352.53;;;21.57;86.89
44457;BME280;30159;49.316;8.558;2023-07-24T05:20:24;99360.38;;;21.58;86.84
44457;BME280;30159;49.316;8.558;2023-07-24T05:22:50;99377.38;;;21.75;86.75
44457;BME280;30159;49.316;8.558;2023-07-24T05:25:17;99383.25;;;21.77;86.50
44457;BME280;30159;49.316;8.558;2023-07-24T05:27:45;99393.44;;;21.73;87.33
44457;BME280;30159;49.316;8.558;2023-07-24T05:30:11;99402.72;;;21.57;87.90
44457;BME280;30159;49.316;8.558;2023-07-24T05:32:38;99402.81;;;21.68;88.01
44457;BME280;30159;49.316;8.558;2023-07-24T05:35:05;99400.47;;;21.70;87.97
44457;BME280;30159;49.316;8.558;2023-07-24T05:37:31;99395.13;;;21.84;87.55
44457;BME280;30159;49.316;8.558;2023-07-24T05:39:58;99395.94;;;21.92;87.07
44457;BME280;30159;49.316;8.558;2023-07-24T05:42:25;99389.31;;;21.97;86.82
44457;BME280;30159;49.316;8.558;2023-07-24T05:44:52;99393.91;;;21.82;87.89
44457;BME280;30159;49.316;8.558;2023-07-24T05:47:19;99409.97;;;21.80;88.06
44457;BME280;30159;49.316;8.558;2023-07-24T05:49:46;99403.72;;;21.83;88.58
44457;BME280;30159;49.316;8.558;2023-07-24T05:52:12;99415.13;;;21.85;88.97
44457;BME280;30159;49.316;8.558;2023-07-24T05:54:39;99243.81;;;20.93;87.13
44457;BME280;30159;49.316;8.558;2023-07-24T05:57:06;99391.25;;;21.93;86.96
44457;BME280;30159;49.316;8.558;2023-07-24T05:59:32;99362.03;;;21.70;87.90
44457;BME280;30159;49.316;8.558;2023-07-24T06:02:00;99404.50;;;21.80;89.15
44457;BME280;30159;49.316;8.558;2023-07-24T06:04:28;99409.25;;;21.90;89.12
44457;BME280;30159;49.316;8.558;2023-07-24T06:06:54;99430.41;;;21.86;89.64
44457;BME280;30159;49.316;8.558;2023-07-24T06:09:21;99425.44;;;22.02;89.19
44457;BME280;30159;49.316;8.558;2023-07-24T06:11:48;99430.28;;;22.20;87.64
44457;BME280;30159;49.316;8.558;2023-07-24T06:14:14;99422.13;;;22.27;87.71
44457;BME280;30159;49.316;8.558;2023-07-24T06:16:41;99414.34;;;22.36;87.43
44457;BME280;30159;49.316;8.558;2023-07-24T06:19:09;99422.22;;;22.41;87.19
44457;BME280;30159;49.316;8.558;2023-07-24T06:21:35;99380.06;;;22.19;86.88
44457;BME280;30159;49.316;8.558;2023-07-24T06:24:02;99435.31;;;22.66;85.96
44457;BME280;30159;49.316;8.558;2023-07-24T06:26:29;99427.06;;;22.66;86.38
44457;BME280;30159;49.316;8.558;2023-07-24T06:28:56;99423.22;;;22.85;85.50
44457;BME280;30159;49.316;8.558;2023-07-24T06:31:22;99419.31;;;22.89;85.46
44457;BME280;30159;49.316;8.558;2023-07-24T06:33:49;99423.34;;;23.06;84.84
44457;BME280;30159;49.316;8.558;2023-07-24T06:36:17;99419.41;;;23.14;84.51
44457;BME280;30159;49.316;8.558;2023-07-24T06:38:44;99417.84;;;23.06;84.85
44457;BME280;30159;49.316;8.558;2023-07-24T06:41:12;99429.59;;;23.00;85.82
44457;BME280;30159;49.316;8.558;2023-07-24T06:43:40;99428.84;;;23.13;85.30
44457;BME280;30159;49.316;8.558;2023-07-24T06:46:07;99436.00;;;23.32;84.69
44457;BME280;30159;49.316;8.558;2023-07-24T06:48:34;99436.00;;;23.40;84.27
44457;BME280;30159;49.316;8.558;2023-07-24T06:51:00;99418.69;;;23.35;84.75
44457;BME280;30159;49.316;8.558;2023-07-24T06:53:28;99427.38;;;23.52;84.68
44457;BME280;30159;49.316;8.558;2023-07-24T06:55:55;99430.91;;;23.56;83.83
44457;BME280;30159;49.316;8.558;2023-07-24T06:58:21;99416.03;;;23.82;82.85
44457;BME280;30159;49.316;8.558;2023-07-24T07:00:48;99422.72;;;23.99;82.75
44457;BME280;30159;49.316;8.558;2023-07-24T07:03:15;99428.19;;;24.28;81.48
44457;BME280;30159;49.316;8.558;2023-07-24T07:05:41;99416.00;;;24.36;81.32
44457;BME280;30159;49.316;8.558;2023-07-24T07:08:08;99418.75;;;24.29;82.09
44457;BME280;30159;49.316;8.558;2023-07-24T07:10:36;99418.31;;;24.52;80.38
44457;BME280;30159;49.316;8.558;2023-07-24T07:13:02;99404.94;;;24.43;80.93
44457;BME280;30159;49.316;8.558;2023-07-24T07:15:29;99389.59;;;24.49;83.02
44457;BME280;30159;49.316;8.558;2023-07-24T07:17:55;99408.03;;;24.74;83.72
44457;BME280;30159;49.316;8.558;2023-07-24T07:20:22;99407.16;;;24.95;82.76
44457;BME280;30159;49.316;8.558;2023-07-24T07:22:49;99401.31;;;24.75;81.08
44457;BME280;30159;49.316;8.558;2023-07-24T07:25:16;99397.22;;;25.12;80.62
44457;BME280;30159;49.316;8.558;2023-07-24T07:27:44;99400.59;;;25.44;77.77
44457;BME280;30159;49.316;8.558;2023-07-24T07:30:11;99407.22;;;25.58;77.01
44457;BME280;30159;49.316;8.558;2023-07-24T07:32:38;99403.81;;;25.92;75.28
44457;BME280;30159;49.316;8.558;2023-07-24T07:35:05;99423.13;;;25.95;74.97
44457;BME280;30159;49.316;8.558;2023-07-24T07:37:32;99433.28;;;25.50;75.37
44457;BME280;30159;49.316;8.558;2023-07-24T07:39:59;99423.59;;;25.13;77.41
44457;BME280;30159;49.316;8.558;2023-07-24T07:42:25;99426.81;;;25.00;78.33
44457;BME280;30159;49.316;8.558;2023-07-24T07:44:53;99427.66;;;24.90;79.01
44457;BME280;30159;49.316;8.558;2023-07-24T07:47:20;99427.19;;;25.13;78.19
44457;BME280;30159;49.316;8.558;2023-07-24T07:49:46;99428.63;;;25.36;77.66
44457;BME280;30159;49.316;8.558;2023-07-24T07:52:13;99421.22;;;25.15;78.46
44457;BME280;30159;49.316;8.558;2023-07-24T07:54:45;99430.78;;;24.99;78.54
44457;BME280;30159;49.316;8.558;2023-07-24T07:57:12;99437.03;;;25.18;78.01
44457;BME280;30159;49.316;8.558;2023-07-24T07:59:39;99441.78;;;25.07;78.56
44457;BME280;30159;49.316;8.558;2023-07-24T08:02:07;99442.97;;;25.06;78.21
44457;BME280;30159;49.316;8.558;2023-07-24T08:04:34;99445.31;;;25.11;77.65
44457;BME280;30159;49.316;8.558;2023-07-24T08:07:00;99439.84;;;24.96;78.61
44457;BME280;30159;49.316;8.558;2023-07-24T08:09:27;99431.88;;;25.13;78.05
44457;BME280;30159;49.316;8.558;2023-07-24T08:11:54;99427.16;;;25.17;77.36
44457;BME280;30159;49.316;8.558;2023-07-24T08:14:21;99423.06;;;25.43;76.99
44457;BME280;30159;49.316;8.558;2023-07-24T08:16:47;99416.66;;;25.57;76.20
44457;BME280;30159;49.316;8.558;2023-07-24T08:19:16;99416.75;;;25.46;76.19
44457;BME280;30159;49.316;8.558;2023-07-24T08:21:42;99417.19;;;25.41;76.45
44457;BME280;30159;49.316;8.558;2023-07-24T08:24:10;99409.31;;;25.39;76.45
44457;BME280;30159;49.316;8.558;2023-07-24T08:26:36;99411.28;;;25.39;76.83
44457;BME280;30159;49.316;8.558;2023-07-24T08:29:03;99406.09;;;25.48;76.42
44457;BME280;30159;49.316;8.558;2023-07-24T08:31:30;99400.38;;;25.73;75.80
44457;BME280;30159;49.316;8.558;2023-07-24T08:33:57;99377.84;;;25.78;75.01
44457;BME280;30159;49.316;8.558;2023-07-24T08:36:25;99396.91;;;26.11;74.02
44457;BME280;30159;49.316;8.558;2023-07-24T08:38:51;99394.69;;;26.36;73.02
44457;BME280;30159;49.316;8.558;2023-07-24T08:41:18;99383.75;;;26.25;73.99
44457;BME280;30159;49.316;8.558;2023-07-24T08:43:44;99388.22;;;26.50;73.00
44457;BME280;30159;49.316;8.558;2023-07-24T08:46:11;99382.00;;;26.77;72.29
44457;BME280;30159;49.316;8.558;2023-07-24T08:48:42;99382.19;;;26.93;72.19
44457;BME280;30159;49.316;8.558;2023-07-24T08:51:11;99241.22;;;26.21;71.23
44457;BME280;30159;49.316;8.558;2023-07-24T08:53:40;99372.91;;;27.38;70.86
44457;BME280;30159;49.316;8.558;2023-07-24T08:56:08;99382.84;;;27.59;70.10
44457;BME280;30159;49.316;8.558;2023-07-24T08:58:36;99347.06;;;27.17;69.50
44457;BME280;30159;49.316;8.558;2023-07-24T09:01:04;99375.97;;;27.43;70.08
44457;BME280;30159;49.316;8.558;2023-07-24T09:03:32;99257.00;;;26.55;70.61
44457;BME280;30159;49.316;8.558;2023-07-24T09:05:59;99381.59;;;27.36;70.53
44457;BME280;30159;49.316;8.558;2023-07-24T09:08:30;99369.19;;;27.21;70.53
44457;BME280;30159;49.316;8.558;2023-07-24T09:10:59;99392.69;;;27.05;71.57
44457;BME280;30159;49.316;8.558;2023-07-24T09:13:26;99377.22;;;26.81;72.33
44457;BME280;30159;49.316;8.558;2023-07-24T09:15:53;99368.59;;;26.75;72.89
44457;BME280;30159;49.316;8.558;2023-07-24T09:18:21;99365.72;;;26.48;74.25
44457;BME280;30159;49.316;8.558;2023-07-24T09:20:48;99358.41;;;26.31;74.87
44457;BME280;30159;49.316;8.558;2023-07-24T09:23:15;99362.38;;;26.30;75.06
44457;BME280;30159;49.316;8.558;2023-07-24T09:25:43;99357.31;;;26.59;74.85
44457;BME280;30159;49.316;8.558;2023-07-24T09:28:13;99356.09;;;26.63;74.45
44457;BME280;30159;49.316;8.558;2023-07-24T09:30:40;99361.13;;;26.99;73.44
44457;BME280;30159;49.316;8.558;2023-07-24T09:33:07;99356.13;;;27.21;72.76
44457;BME280;30159;49.316;8.558;2023-07-24T09:35:34;99264.38;;;26.34;73.03
44457;BME280;30159;49.316;8.558;2023-07-24T09:38:05;99372.63;;;27.28;72.42
44457;BME280;30159;49.316;8.558;2023-07-24T09:40:39;99381.31;;;27.58;71.79
44457;BME280;30159;49.316;8.558;2023-07-24T09:43:18;99366.84;;;27.46;71.33
44457;BME280;30159;49.316;8.558;2023-07-24T09:45:46;99350.19;;;27.19;72.02
44457;BME280;30159;49.316;8.558;2023-07-24T09:48:14;99344.66;;;27.19;72.25
44457;BME280;30159;49.316;8.558;2023-07-24T09:50:42;99357.06;;;27.38;71.53
44457;BME280;30159;49.316;8.558;2023-07-24T09:53:13;99359.09;;;27.34;71.03
44457;BME280;30159;49.316;8.558;2023-07-24T09:55:47;99364.66;;;27.03;73.59
44457;BME280;30159;49.316;8.558;2023-07-24T09:58:15;99356.91;;;27.22;73.24
44457;BME280;30159;49.316;8.558;2023-07-24T10:00:44;99350.34;;;27.08;72.96
44457;BME280;30159;49.316;8.558;2023-07-24T10:03:13;99344.09;;;27.04;72.76
44457;BME280;30159;49.316;8.558;2023-07-24T10:05:40;99349.91;;;26.83;73.70
44457;BME280;30159;49.316;8.558;2023-07-24T10:08:08;99339.03;;;26.68;73.44
44457;BME280;30159;49.316;8.558;2023-07-24T10:10:35;99327.31;;;26.57;74.27
44457;BME280;30159;49.316;8.558;2023-07-24T10:13:03;99344.50;;;26.38;75.42
44457;BME280;30159;49.316;8.558;2023-07-24T10:15:30;99355.53;;;26.03;76.89
44457;BME280;30159;49.316;8.558;2023-07-24T10:18:03;99357.03;;;26.12;76.69
44457;BME280;30159;49.316;8.558;2023-07-24T10:20:34;99365.47;;;25.97;77.43
44457;BME280;30159;49.316;8.558;2023-07-24T10:23:01;99358.41;;;25.93;77.87
44457;BME280;30159;49.316;8.558;2023-07-24T10:25:29;99347.88;;;25.73;77.80
44457;BME280;30159;49.316;8.558;2023-07-24T10:28:01;99355.72;;;25.82;78.33
44457;BME280;30159;49.316;8.558;2023-07-24T10:30:31;99349.38;;;25.89;79.26
44457;BME280;30159;49.316;8.558;2023-07-24T10:33:05;99353.38;;;25.77;78.90
44457;BME280;30159;49.316;8.558;2023-07-24T10:35:43;99360.53;;;25.74;80.10
44457;BME280;30159;49.316;8.558;2023-07-24T10:38:10;99359.41;;;25.64;81.09
44457;BME280;30159;49.316;8.558;2023-07-24T10:40:37;99360.66;;;25.56;81.38
44457;BME280;30159;49.316;8.558;2023-07-24T10:43:08;99364.19;;;25.60;80.86
44457;BME280;30159;49.316;8.558;2023-07-24T10:45:39;99362.88;;;25.76;81.28
44457;BME280;30159;49.316;8.558;2023-07-24T10:48:07;99369.91;;;25.80;81.04
44457;BME280;30159;49.316;8.558;2023-07-24T10:50:38;99357.22;;;25.94;80.06
44457;BME280;30159;49.316;8.558;2023-07-24T10:53:04;99360.34;;;25.96;81.15
44457;BME280;30159;49.316;8.558;2023-07-24T10:55:31;99356.97;;;26.15;80.93
44457;BME280;30159;49.316;8.558;2023-07-24T10:57:58;99372.78;;;26.18;81.00
44457;BME280;30159;49.316;8.558;2023-07-24T11:00:25;99366.41;;;26.21;81.64
44457;BME280;30159;49.316;8.558;2023-07-24T11:02:52;99368.00;;;26.22;82.10
44457;BME280;30159;49.316;8.558;2023-07-24T11:05:20;99355.03;;;26.50;81.15
44457;BME280;30159;49.316;8.558;2023-07-24T11:07:47;99348.53;;;26.67;80.27
44457;BME280;30159;49.316;8.558;2023-07-24T11:10:17;99266.22;;;26.10;79.01
44457;BME280;30159;49.316;8.558;2023-07-24T11:12:44;99333.66;;;26.85;79.75
44457;BME280;30159;49.316;8.558;2023-07-24T11:15:11;99333.94;;;26.94;79.71
44457;BME280;30159;49.316;8.558;2023-07-24T11:17:39;99345.47;;;27.20;78.22
44457;BME280;30159;49.316;8.558;2023-07-24T11:20:08;99345.63;;;27.60;77.77
44457;BME280;30159;49.316;8.558;2023-07-24T11:22:38;99256.03;;;26.96;76.96
44457;BME280;30159;49.316;8.558;2023-07-24T11:25:04;99330.69;;;27.77;76.65
44457;BME280;30159;49.316;8.558;2023-07-24T11:27:33;99329.72;;;27.64;75.23
44457;BME280;30159;49.316;8.558;2023-07-24T11:29:59;99345.22;;;27.61;75.57
44457;BME280;30159;49.316;8.558;2023-07-24T11:32:26;99339.97;;;27.67;74.40
44457;BME280;30159;49.316;8.558;2023-07-24T11:34:53;99344.69;;;27.70;74.14
44457;BME280;30159;49.316;8.558;2023-07-24T11:37:20;99342.72;;;27.67;73.86
44457;BME280;30159;49.316;8.558;2023-07-24T11:39:58;99218.00;;;26.76;73.97
44457;BME280;30159;49.316;8.558;2023-07-24T11:42:29;99312.50;;;27.29;73.63
44457;BME280;30159;49.316;8.558;2023-07-24T11:45:00;99350.13;;;27.26;74.50
44457;BME280;30159;49.316;8.558;2023-07-24T11:47:27;99346.28;;;27.17;75.18
44457;BME280;30159;49.316;8.558;2023-07-24T11:49:58;99338.38;;;27.15;75.63
44457;BME280;30159;49.316;8.558;2023-07-24T11:52:25;99335.19;;;27.17;75.82
44457;BME280;30159;49.316;8.558;2023-07-24T11:54:59;99336.41;;;27.43;75.94
44457;BME280;30159;49.316;8.558;2023-07-24T11:57:29;99239.69;;;27.05;74.68
44457;BME280;30159;49.316;8.558;2023-07-24T11:59:55;99325.16;;;27.53;74.92
44457;BME280;30159;49.316;8.558;2023-07-24T12:02:25;99322.97;;;27.41;74.45
44457;BME280;30159;49.316;8.558;2023-07-24T12:04:55;99336.47;;;27.39;75.27
44457;BME280;30159;49.316;8.558;2023-07-24T12:07:29;99325.03;;;27.37;75.27
44457;BME280;30159;49.316;8.558;2023-07-24T12:09:56;99317.72;;;27.23;75.38
44457;BME280;30159;49.316;8.558;2023-07-24T12:12:24;99312.22;;;27.20;75.44
44457;BME280;30159;49.316;8.558;2023-07-24T12:14:51;99305.59;;;27.14;75.76
44457;BME280;30159;49.316;8.558;2023-07-24T12:17:18;99308.66;;;27.46;74.77
44457;BME280;30159;49.316;8.558;2023-07-24T12:19:45;99303.44;;;27.25;75.43
44457;BME280;30159;49.316;8.558;2023-07-24T12:22:12;99295.19;;;26.94;75.87
44457;BME280;30159;49.316;8.558;2023-07-24T12:24:39;99288.66;;;26.50;77.62
44457;BME280;30159;49.316;8.558;2023-07-24T12:27:06;99280.41;;;26.12;78.91
44457;BME280;30159;49.316;8.558;2023-07-24T12:29:33;99282.13;;;26.02;79.56
44457;BME280;30159;49.316;8.558;2023-07-24T12:32:00;99259.91;;;26.13;80.11
44457;BME280;30159;49.316;8.558;2023-07-24T12:34:27;99273.06;;;26.33;81.32
44457;BME280;30159;49.316;8.558;2023-07-24T12:36:53;99267.53;;;26.33;83.48
44457;BME280;30159;49.316;8.558;2023-07-24T12:39:20;99292.53;;;26.25;82.33
44457;BME280;30159;49.316;8.558;2023-07-24T12:41:46;99286.06;;;26.36;81.27
44457;BME280;30159;49.316;8.558;2023-07-24T12:44:13;99276.13;;;26.73;79.29
44457;BME280;30159;49.316;8.558;2023-07-24T12:46:41;99278.94;;;26.96;76.98
44457;BME280;30159;49.316;8.558;2023-07-24T12:49:08;99267.81;;;27.27;75.33
44457;BME280;30159;49.316;8.558;2023-07-24T12:51:34;99280.31;;;27.11;74.97
44457;BME280;30159;49.316;8.558;2023-07-24T12:54:01;99272.13;;;27.04;74.80
44457;BME280;30159;49.316;8.558;2023-07-24T12:56:27;99259.88;;;27.52;73.64
44457;BME280;30159;49.316;8.558;2023-07-24T12:58:54;99275.03;;;27.68;72.19
44457;BME280;30159;49.316;8.558;2023-07-24T13:01:20;99274.19;;;27.71;71.99